Ana Sayfa
METAR-TAF:

METAR-TAF

Havaalanları :

Ujgorod, Ukrayna

Enlem: 48-38-05N, Boylam: 022-15-53E, yükseklik: 117 m

Güncel hava durumu gözlemi

Rapor saat 11:00 UTC de 18 dakika önce yapıldı.
Rüzgar kuzeybatıdan 4 kt
Sıcaklık 7°C
Nem 81%
Basınç 998 hPa
Görüş mesafesi 10 km veya daha fazla

METAR: UKLU 141100Z 32002MPS 9999 NSC 07/04 Q0998 R10/190065 NOSIG

Saat: 13:18 (11:18 UTC)

Tahmin

Rapor saat 08:02 UTC de 3 saat ve 16 dakika önce yapıldı.
Ayın 14'si saat 09 UTC'den ayın 14'si saat 18 UTC'ye kadar geçerli Tahmin
Rüzgar değişken yönden 2 kt
Görüş mesafesi: 6000 m
3000 ft yükseklikte parçalı çok bulutlu
Geçici
ayın 14'si saat 09 UTC'den ayın 14'si saat 15 UTC'ye kadar
Rüzgar güneybatıdan 6 kt
Görüş mesafesi: 2100 m
700 ft yükseklikte parçalı çok bulutlu
2000 ft yükseklikte parçalı çok bulutlu
hafif yağmur, Pus

TAF: UKLU 140802Z 1409/1418 VRB01MPS 6000 BKN030 TX07/1413Z TN05/1418Z TEMPO 1409/1415 22003MPS 2100 -RA BR BKN007 BKN020

4.000'den fazla havaalanı için hava durumu gözlemleri ve tahminleri (METAR ve TAF raporları).

Kullanılabilir istasyonlar harita üzerinde sarı ve kırmızı noktalarla gösterilir.

İstasyonun adını görmek için fareyi noktanın üzerinde gezdirin.

Sonrasında hava gözlem ve tahminlerini görmek için tıklayın.

Haritayı değiştirmek için: yaklaştırmak için siyah artı işaretli yeşil düğmeye ve uzaklaştırmak için de eksi işaretli düğmeye hızla tıklayın; bitişik haritalar için yeşil okları kullanın.


METAR-TAF: